Time;durP1;ratioP1;P1;durP2;ratioP2;P2;SDS_P1;SDS_P2;PMS_P1;PMS_P2;Temp;Humidity;BMP_temperature;BMP_pressure;BME280_temperature;BME280_humidity;BME280_pressure;Samples;Min_cycle;Max_cycle;Signal;HPM_P1;HPM_P2
2021/11/15 00:00:46;;;;;;;6.85;5.43;;;13.00;67.40;;;;;;5033781;28;20373;-73
2021/11/15 00:03:14;;;;;;;7.10;5.85;;;13.10;67.80;;;;;;5033347;28;20474;-75
2021/11/15 00:05:40;;;;;;;7.72;6.07;;;13.00;67.60;;;;;;5033555;28;20390;-74
2021/11/15 00:08:05;;;;;;;8.75;6.70;;;13.10;67.70;;;;;;5033444;28;20036;-73
2021/11/15 00:10:32;;;;;;;7.05;6.25;;;13.10;67.60;;;;;;5033633;28;20029;-74
2021/11/15 00:12:57;;;;;;;7.78;6.80;;;13.10;67.60;;;;;;5033226;28;20022;-73
2021/11/15 00:15:23;;;;;;;9.88;6.40;;;13.10;67.60;;;;;;5033518;28;20037;-73
2021/11/15 00:17:49;;;;;;;8.40;6.15;;;13.00;67.70;;;;;;5033432;28;20067;-73
2021/11/15 00:20:17;;;;;;;8.45;6.53;;;13.10;67.70;;;;;;5033261;28;20132;-74
2021/11/15 00:22:43;;;;;;;9.05;7.35;;;13.10;67.50;;;;;;5033368;28;20033;-73
2021/11/15 00:25:10;;;;;;;7.78;6.68;;;13.10;67.20;;;;;;5033183;28;20025;-74
2021/11/15 00:27:36;;;;;;;8.10;6.78;;;13.10;67.20;;;;;;5032993;28;20385;-73
2021/11/15 00:30:04;;;;;;;9.93;7.22;;;13.10;67.30;;;;;;5033119;28;20104;-74
2021/11/15 00:32:30;;;;;;;7.75;6.80;;;13.10;67.30;;;;;;5033178;28;20033;-73
2021/11/15 00:34:55;;;;;;;10.52;7.38;;;13.10;67.10;;;;;;5033012;28;20371;-73
2021/11/15 00:37:22;;;;;;;9.23;6.85;;;13.10;67.10;;;;;;5032613;28;20490;-74
2021/11/15 00:39:49;;;;;;;8.73;7.28;;;13.10;67.10;;;;;;5032787;28;20496;-73
2021/11/15 00:42:14;;;;;;;9.10;7.32;;;13.10;67.20;;;;;;5032941;28;20029;-73
2021/11/15 00:44:40;;;;;;;8.98;7.80;;;13.10;67.30;;;;;;5032908;28;20029;-73
2021/11/15 00:47:06;;;;;;;9.45;7.28;;;13.10;67.20;;;;;;5032148;28;20048;-73
2021/11/15 00:49:32;;;;;;;10.25;7.82;;;13.10;67.30;;;;;;5032929;28;20021;-73
2021/11/15 00:51:58;;;;;;;9.63;7.78;;;13.10;67.10;;;;;;5032545;28;20022;-73
2021/11/15 00:54:24;;;;;;;10.52;8.80;;;13.10;67.10;;;;;;5033018;28;20084;-73
2021/11/15 00:56:49;;;;;;;10.80;8.35;;;13.10;67.00;;;;;;5033055;28;20034;-73
2021/11/15 00:59:15;;;;;;;11.82;8.90;;;13.10;67.10;;;;;;5032730;28;20393;-74
2021/11/15 01:01:41;;;;;;;12.77;9.27;;;13.10;66.90;;;;;;5032893;28;20025;-74
2021/11/15 01:04:07;;;;;;;12.90;9.40;;;13.10;66.80;;;;;;5032852;28;20022;-73
2021/11/15 01:06:33;;;;;;;13.77;9.07;;;13.20;66.50;;;;;;5032656;28;20057;-73
2021/11/15 01:08:58;;;;;;;14.07;9.60;;;13.10;66.60;;;;;;5032829;28;20022;-73
2021/11/15 01:11:25;;;;;;;13.52;8.95;;;13.20;66.50;;;;;;5032554;28;20386;-73
2021/11/15 01:13:51;;;;;;;12.90;9.43;;;13.20;66.30;;;;;;5032635;28;20486;-74
2021/11/15 01:16:17;;;;;;;11.45;8.70;;;13.10;66.10;;;;;;5032590;28;20390;-74
2021/11/15 01:18:43;;;;;;;11.20;8.50;;;13.10;66.00;;;;;;5032363;28;20057;-73
2021/11/15 01:21:13;;;;;;;13.52;9.00;;;13.10;65.90;;;;;;5032621;28;20420;-73
2021/11/15 01:23:39;;;;;;;13.35;9.15;;;13.10;65.90;;;;;;5032484;28;20028;-73
2021/11/15 01:26:07;;;;;;;11.40;8.60;;;13.10;65.60;;;;;;5032643;28;20303;-74
2021/11/15 01:28:33;;;;;;;12.38;9.15;;;13.10;65.20;;;;;;5032509;28;20470;-73
2021/11/15 01:31:00;;;;;;;12.60;8.90;;;13.10;65.00;;;;;;5032512;28;20101;-74
2021/11/15 01:33:25;;;;;;;12.88;7.60;;;13.10;65.10;;;;;;5032450;28;20080;-72
2021/11/15 01:35:51;;;;;;;14.85;9.05;;;13.10;65.10;;;;;;5032046;28;20034;-73
2021/11/15 01:38:17;;;;;;;10.07;7.85;;;13.10;65.20;;;;;;5032409;28;20025;-73
2021/11/15 01:40:43;;;;;;;12.38;8.32;;;13.00;64.90;;;;;;5032505;28;20021;-73
2021/11/15 01:43:09;;;;;;;13.25;8.52;;;13.00;64.80;;;;;;5032318;28;20032;-73
2021/11/15 01:45:37;;;;;;;13.30;7.70;;;13.00;64.80;;;;;;5032400;28;20029;-73
2021/11/15 01:48:05;;;;;;;13.57;8.10;;;12.90;65.00;;;;;;5032135;28;20029;-73
2021/11/15 01:50:33;;;;;;;12.35;7.45;;;12.90;65.00;;;;;;5032270;28;20032;-73
2021/11/15 01:52:59;;;;;;;12.93;8.88;;;12.90;65.20;;;;;;5032241;28;20095;-73
2021/11/15 01:55:27;;;;;;;11.85;8.15;;;12.90;65.00;;;;;;5032318;28;20029;-73
2021/11/15 01:57:54;;;;;;;9.68;7.93;;;12.80;64.90;;;;;;5031663;28;20469;-73
2021/11/15 02:00:31;;;;;;;10.38;7.55;;;12.90;64.90;;;;;;5033086;28;20394;-73
2021/11/15 02:02:58;;;;;;;10.77;7.82;;;12.90;65.90;;;;;;5032846;28;20038;-73
2021/11/15 02:05:24;;;;;;;12.15;8.63;;;12.90;80.10;;;;;;5034852;28;20067;-74
2021/11/15 02:07:50;;;;;;;13.82;9.38;;;12.90;78.80;;;;;;5035768;28;20069;-74
2021/11/15 02:10:16;;;;;;;13.65;8.88;;;12.90;77.00;;;;;;5035484;28;20459;-73
2021/11/15 02:12:42;;;;;;;16.23;8.82;;;12.90;76.00;;;;;;5035319;28;20025;-74
2021/11/15 02:15:11;;;;;;;15.25;10.30;;;12.80;74.40;;;;;;5035795;28;20055;-74
2021/11/15 02:17:38;;;;;;;12.05;9.02;;;12.80;73.50;;;;;;5035496;28;20470;-72
2021/11/15 02:20:07;;;;;;;13.38;9.27;;;12.80;70.80;;;;;;5035071;28;20056;-73
2021/11/15 02:22:33;;;;;;;12.27;9.38;;;12.80;70.70;;;;;;5034923;28;20530;-73
2021/11/15 02:25:02;;;;;;;13.43;9.35;;;12.80;71.00;;;;;;5035602;28;20489;-73
2021/11/15 02:27:28;;;;;;;14.85;9.68;;;12.80;71.10;;;;;;5035335;28;20025;-73
2021/11/15 02:29:53;;;;;;;15.88;9.75;;;12.80;67.70;;;;;;5035042;28;20117;-74
2021/11/15 02:32:20;;;;;;;12.32;9.27;;;12.70;66.20;;;;;;5035084;28;20028;-74
2021/11/15 02:34:45;;;;;;;12.57;9.35;;;12.70;66.40;;;;;;5035310;28;20347;-72
2021/11/15 02:37:11;;;;;;;13.10;8.80;;;12.70;66.10;;;;;;5034697;28;20037;-73
2021/11/15 02:39:37;;;;;;;10.68;8.60;;;12.70;65.90;;;;;;5035063;28;20029;-73
2021/11/15 02:42:03;;;;;;;16.40;9.65;;;12.70;65.90;;;;;;5035125;28;20083;-74
2021/11/15 02:44:29;;;;;;;12.73;9.32;;;12.70;65.70;;;;;;5035006;28;20053;-73
2021/11/15 02:46:55;;;;;;;13.90;9.48;;;12.70;65.90;;;;;;5034964;28;20433;-74
2021/11/15 02:49:21;;;;;;;13.63;9.35;;;12.60;65.90;;;;;;5034956;28;20052;-73
2021/11/15 02:51:48;;;;;;;16.05;10.07;;;12.60;66.00;;;;;;5033448;28;20052;-73
2021/11/15 02:54:13;;;;;;;20.55;10.48;;;12.60;65.90;;;;;;5034915;28;20026;-73
2021/11/15 02:56:40;;;;;;;14.15;10.10;;;12.60;65.80;;;;;;5034844;28;20554;-74
2021/11/15 02:59:06;;;;;;;15.13;10.32;;;12.60;65.80;;;;;;5034450;28;20385;-73
2021/11/15 03:01:32;;;;;;;15.50;9.98;;;12.60;66.10;;;;;;5034711;28;20021;-72
2021/11/15 03:03:58;;;;;;;13.25;9.80;;;12.60;66.20;;;;;;5034497;28;20025;-74
2021/11/15 03:06:23;;;;;;;13.30;10.57;;;12.60;66.20;;;;;;5034697;28;20025;-73
2021/11/15 03:08:50;;;;;;;12.75;9.88;;;12.60;66.50;;;;;;5034828;28;20021;-73
2021/11/15 03:11:16;;;;;;;19.50;11.32;;;12.70;66.80;;;;;;5033859;28;20034;-72
2021/11/15 03:13:45;;;;;;;11.95;9.32;;;12.60;67.10;;;;;;5034656;28;20029;-73
2021/11/15 03:16:12;;;;;;;14.73;10.38;;;12.70;67.50;;;;;;5034488;28;20097;-74
2021/11/15 03:18:39;;;;;;;20.90;10.15;;;12.70;67.70;;;;;;5034136;28;20120;-73
2021/11/15 03:21:09;;;;;;;14.90;10.60;;;12.70;67.70;;;;;;5034254;28;20037;-72
2021/11/15 03:23:39;;;;;;;14.70;10.65;;;12.70;67.90;;;;;;5034159;28;20037;-72
2021/11/15 03:26:05;;;;;;;13.85;10.00;;;12.70;68.00;;;;;;5034311;28;20037;-73
2021/11/15 03:28:36;;;;;;;15.35;10.85;;;12.70;68.20;;;;;;5034337;28;20469;-73
2021/11/15 03:31:19;;;;;;;15.32;10.65;;;12.70;68.40;;;;;;5034213;28;20088;-73
2021/11/15 03:33:46;;;;;;;13.80;10.10;;;12.70;68.40;;;;;;5034469;28;20025;-73
2021/11/15 03:36:12;;;;;;;15.35;10.75;;;12.70;68.70;;;;;;5033871;28;20530;-74
2021/11/15 03:38:38;;;;;;;17.02;10.52;;;12.70;68.80;;;;;;5034031;28;20096;-73
2021/11/15 03:41:04;;;;;;;17.63;10.35;;;12.70;69.50;;;;;;5033773;28;20528;-74
2021/11/15 03:43:30;;;;;;;13.43;10.05;;;12.70;68.80;;;;;;5033975;28;20037;-74
2021/11/15 03:45:57;;;;;;;17.23;10.60;;;12.70;69.00;;;;;;5033832;28;20108;-74
2021/11/15 03:48:23;;;;;;;14.77;10.52;;;12.70;68.90;;;;;;5034036;28;20029;-74
2021/11/15 03:50:54;;;;;;;17.15;10.68;;;12.70;68.90;;;;;;5034040;28;20043;-74
2021/11/15 03:53:23;;;;;;;16.38;11.48;;;12.70;68.60;;;;;;5033910;28;20033;-74
2021/11/15 03:55:49;;;;;;;16.98;11.07;;;12.70;68.70;;;;;;5033415;28;20463;-74
2021/11/15 03:58:15;;;;;;;13.38;10.30;;;12.80;69.00;;;;;;5033681;28;20034;-74
2021/11/15 04:00:41;;;;;;;14.70;10.73;;;12.80;69.10;;;;;;5032287;28;20014;-73
2021/11/15 04:03:15;;;;;;;15.93;10.18;;;12.80;69.00;;;;;;5033273;28;20390;-74
2021/11/15 04:05:45;;;;;;;14.98;11.13;;;12.80;68.70;;;;;;5033458;28;20017;-73
2021/11/15 04:08:11;;;;;;;14.65;11.38;;;12.90;68.70;;;;;;5033419;28;20075;-74
2021/11/15 04:10:42;;;;;;;17.02;10.50;;;12.80;68.70;;;;;;5033806;28;20022;-74
2021/11/15 04:13:18;;;;;;;20.75;12.02;;;12.90;68.70;;;;;;5033587;28;20021;-73
2021/11/15 04:15:46;;;;;;;18.50;12.20;;;12.90;68.50;;;;;;5032983;28;20027;-74
2021/11/15 04:18:14;;;;;;;17.17;10.55;;;12.90;67.80;;;;;;5033064;28;20128;-74
2021/11/15 04:20:40;;;;;;;13.75;11.20;;;12.90;67.80;;;;;;5033059;28;20022;-73
2021/11/15 04:23:06;;;;;;;16.33;11.00;;;12.90;67.90;;;;;;5033337;28;20063;-73
2021/11/15 04:25:32;;;;;;;13.85;10.48;;;12.80;67.80;;;;;;5032479;28;20030;-73
2021/11/15 04:27:58;;;;;;;17.50;10.88;;;12.90;67.70;;;;;;5031949;28;20024;-74
2021/11/15 04:30:24;;;;;;;14.25;10.27;;;12.90;67.90;;;;;;5031532;28;20025;-73
2021/11/15 04:32:50;;;;;;;13.02;9.98;;;12.80;67.50;;;;;;5031659;28;20020;-72
2021/11/15 04:35:18;;;;;;;12.85;9.55;;;12.80;67.60;;;;;;5031201;28;20049;-73
2021/11/15 04:37:45;;;;;;;17.02;10.10;;;12.90;67.70;;;;;;5032078;28;20025;-73
2021/11/15 04:40:11;;;;;;;13.77;9.25;;;12.90;67.40;;;;;;5031404;28;20022;-74
2021/11/15 04:42:37;;;;;;;13.48;9.27;;;12.80;67.60;;;;;;5031193;28;20450;-74
2021/11/15 04:45:04;;;;;;;14.73;9.70;;;12.80;67.90;;;;;;5031745;28;20045;-74
2021/11/15 04:47:30;;;;;;;13.77;9.73;;;12.80;67.80;;;;;;5032336;28;20385;-74
2021/11/15 04:49:56;;;;;;;13.20;9.75;;;12.80;67.30;;;;;;5031952;28;20025;-74
2021/11/15 04:52:22;;;;;;;12.43;10.27;;;12.80;67.20;;;;;;5032070;28;20040;-74
2021/11/15 04:54:48;;;;;;;12.80;9.18;;;12.90;66.80;;;;;;5032628;28;20086;-77
2021/11/15 04:57:16;;;;;;;12.35;9.43;;;12.90;66.80;;;;;;5030875;28;20087;-73
2021/11/15 04:59:43;;;;;;;14.20;9.55;;;12.80;66.70;;;;;;5032023;28;20053;-74
2021/11/15 05:02:09;;;;;;;12.70;9.27;;;12.90;66.70;;;;;;5031191;28;20034;-74
2021/11/15 05:04:34;;;;;;;14.80;10.40;;;12.80;66.70;;;;;;5031643;28;20041;-74
2021/11/15 05:07:00;;;;;;;13.52;10.10;;;12.80;66.60;;;;;;5032624;28;20034;-75
2021/11/15 05:09:26;;;;;;;14.35;10.18;;;12.80;66.60;;;;;;5032586;28;20057;-74
2021/11/15 05:11:52;;;;;;;12.77;9.93;;;12.90;66.60;;;;;;5031792;28;20108;-75
2021/11/15 05:14:18;;;;;;;15.35;9.55;;;12.90;67.20;;;;;;5030692;28;20030;-74
2021/11/15 05:16:43;;;;;;;13.68;9.43;;;12.80;66.30;;;;;;5029212;28;20033;-75
2021/11/15 05:19:09;;;;;;;12.60;10.35;;;12.90;66.20;;;;;;5031348;28;20053;-74
2021/11/15 05:21:34;;;;;;;15.15;10.60;;;12.90;66.40;;;;;;5031633;28;20025;-75
2021/11/15 05:24:00;;;;;;;13.45;10.40;;;12.90;66.30;;;;;;5030504;28;20441;-75
2021/11/15 05:26:28;;;;;;;17.17;11.30;;;12.80;66.20;;;;;;5030330;28;20005;-75
2021/11/15 05:28:54;;;;;;;19.75;12.23;;;12.80;66.20;;;;;;5029634;28;20477;-74
2021/11/15 05:31:19;;;;;;;15.45;10.90;;;12.90;66.30;;;;;;5032358;28;20025;-75
2021/11/15 05:33:45;;;;;;;17.35;11.48;;;12.80;66.00;;;;;;5034182;28;20504;-75
2021/11/15 05:36:11;;;;;;;14.55;11.90;;;12.80;66.10;;;;;;5036027;28;20030;-75
2021/11/15 05:38:37;;;;;;;15.15;11.85;;;12.80;66.40;;;;;;5035688;28;20033;-75
2021/11/15 05:41:03;;;;;;;16.48;12.57;;;12.80;66.20;;;;;;5035398;28;20355;-75
2021/11/15 05:43:29;;;;;;;15.80;12.48;;;12.80;66.20;;;;;;5035733;28;20022;-75
2021/11/15 05:45:54;;;;;;;16.02;12.82;;;12.90;66.10;;;;;;5036154;28;20104;-75
2021/11/15 05:48:20;;;;;;;21.63;13.23;;;12.90;65.90;;;;;;5035652;28;20029;-74
2021/11/15 05:50:47;;;;;;;15.48;12.20;;;12.80;65.50;;;;;;5035880;28;20029;-75
2021/11/15 05:53:15;;;;;;;17.55;12.40;;;12.80;65.50;;;;;;5036060;28;20466;-75
2021/11/15 05:55:41;;;;;;;20.35;12.50;;;12.80;65.60;;;;;;5036166;28;20030;-75
2021/11/15 05:58:07;;;;;;;18.80;12.55;;;12.80;65.90;;;;;;5035229;28;20037;-75
2021/11/15 06:00:34;;;;;;;18.77;12.85;;;12.80;66.20;;;;;;5034802;28;20021;-74
2021/11/15 06:03:00;;;;;;;16.80;12.23;;;12.80;66.10;;;;;;5034864;28;20264;-72
2021/11/15 06:05:26;;;;;;;15.80;12.60;;;12.90;66.20;;;;;;5034199;28;20025;-74
2021/11/15 06:07:52;;;;;;;18.30;12.77;;;12.90;66.10;;;;;;5034704;28;20022;-74
2021/11/15 06:10:18;;;;;;;16.25;12.77;;;12.80;66.00;;;;;;5034460;28;20060;-73
2021/11/15 06:12:44;;;;;;;18.65;13.35;;;12.90;66.40;;;;;;5035574;28;20359;-73
2021/11/15 06:15:12;;;;;;;18.27;13.23;;;12.80;66.60;;;;;;5035734;28;20021;-74
2021/11/15 06:17:38;;;;;;;19.35;13.07;;;12.80;66.80;;;;;;5033733;28;20030;-73
2021/11/15 06:20:06;;;;;;;18.98;13.98;;;12.80;67.00;;;;;;5034920;28;20114;-73
2021/11/15 06:22:32;;;;;;;17.80;13.75;;;12.80;67.10;;;;;;5034667;28;20017;-74
2021/11/15 06:24:58;;;;;;;20.67;14.10;;;12.80;67.20;;;;;;5035559;28;20416;-74
2021/11/15 06:27:24;;;;;;;17.30;13.32;;;12.80;67.20;;;;;;5035657;28;20462;-74
2021/11/15 06:29:49;;;;;;;17.50;13.75;;;12.80;67.40;;;;;;5034888;28;20064;-74
2021/11/15 06:32:16;;;;;;;19.00;13.98;;;12.70;67.90;;;;;;5034171;28;20313;-73
2021/11/15 06:34:42;;;;;;;20.15;14.00;;;12.70;68.10;;;;;;5034770;28;20505;-72
2021/11/15 06:37:07;;;;;;;19.25;14.25;;;12.70;68.20;;;;;;5035318;28;20037;-73
2021/11/15 06:39:34;;;;;;;23.60;14.20;;;12.70;69.20;;;;;;5035062;28;20466;-73
2021/11/15 06:42:00;;;;;;;28.33;14.88;;;12.70;69.00;;;;;;5034444;28;20057;-74
2021/11/15 06:44:27;;;;;;;22.23;15.32;;;12.70;69.50;;;;;;5032740;28;20033;-73
2021/11/15 06:46:53;;;;;;;24.80;15.07;;;12.70;70.40;;;;;;5035244;28;20025;-74
2021/11/15 06:49:19;;;;;;;23.23;14.98;;;12.70;72.40;;;;;;5034932;28;20028;-74
2021/11/15 06:51:46;;;;;;;22.88;15.00;;;12.70;72.60;;;;;;5034933;28;20030;-73
2021/11/15 06:54:13;;;;;;;26.77;14.35;;;12.70;72.80;;;;;;5034741;28;20030;-73
2021/11/15 06:56:39;;;;;;;19.65;14.57;;;12.70;72.10;;;;;;5033549;28;20033;-73
2021/11/15 06:59:05;;;;;;;22.25;14.20;;;12.70;71.80;;;;;;5034609;28;20100;-72
2021/11/15 07:01:36;;;;;;;26.23;14.02;;;12.60;71.80;;;;;;5033498;28;20045;-73
2021/11/15 07:04:02;;;;;;;21.40;14.65;;;12.60;72.00;;;;;;5033967;28;20109;-73
2021/11/15 07:06:28;;;;;;;20.38;13.55;;;12.70;72.10;;;;;;5034442;28;20100;-73
2021/11/15 07:08:54;;;;;;;20.08;13.98;;;12.70;72.10;;;;;;5033425;28;20538;-74
2021/11/15 07:11:19;;;;;;;20.50;13.80;;;12.70;72.00;;;;;;5034040;28;20053;-73
2021/11/15 07:13:45;;;;;;;18.90;13.75;;;12.70;71.80;;;;;;5033798;28;20500;-73
2021/11/15 07:16:11;;;;;;;18.95;13.48;;;12.70;71.70;;;;;;5033305;28;20474;-73
2021/11/15 07:18:37;;;;;;;20.95;13.98;;;12.70;72.70;;;;;;5034392;28;20155;-73
2021/11/15 07:21:04;;;;;;;19.15;12.95;;;12.70;72.10;;;;;;5033570;28;20497;-71
2021/11/15 07:23:30;;;;;;;17.27;12.88;;;12.70;72.10;;;;;;5034466;28;20470;-71
2021/11/15 07:25:55;;;;;;;19.27;12.82;;;12.70;71.80;;;;;;5034427;28;20028;-71
2021/11/15 07:28:22;;;;;;;17.38;12.63;;;12.70;71.90;;;;;;5034286;28;20466;-72
2021/11/15 07:30:54;;;;;;;17.92;13.10;;;12.80;72.00;;;;;;5033872;28;20359;-73
2021/11/15 07:33:20;;;;;;;17.70;13.25;;;12.80;71.70;;;;;;5034034;28;20108;-72
2021/11/15 07:35:47;;;;;;;23.75;12.93;;;12.70;71.60;;;;;;5034169;28;20029;-73
2021/11/15 07:38:12;;;;;;;20.58;13.25;;;12.80;71.80;;;;;;5034047;28;20026;-73
2021/11/15 07:40:38;;;;;;;19.80;13.85;;;12.80;71.90;;;;;;5034117;28;20470;-73
2021/11/15 07:43:04;;;;;;;19.23;13.60;;;12.80;71.80;;;;;;5034178;28;20026;-73
2021/11/15 07:45:29;;;;;;;21.45;13.85;;;12.90;71.50;;;;;;5034021;28;20033;-73
2021/11/15 07:47:55;;;;;;;19.13;14.45;;;12.90;71.30;;;;;;5034004;28;20029;-73
2021/11/15 07:50:21;;;;;;;20.98;14.68;;;12.90;71.60;;;;;;5032667;28;20117;-73
2021/11/15 07:52:46;;;;;;;22.38;15.02;;;12.90;71.70;;;;;;5033632;28;20029;-74
2021/11/15 07:55:14;;;;;;;25.27;16.27;;;12.90;71.10;;;;;;5033779;28;20028;-73
2021/11/15 07:57:41;;;;;;;21.00;15.13;;;12.90;70.60;;;;;;5033473;28;20033;-73
2021/11/15 08:00:10;;;;;;;25.45;15.68;;;13.00;70.70;;;;;;5033868;28;20056;-74
2021/11/15 08:02:36;;;;;;;24.77;15.10;;;13.00;70.60;;;;;;5033734;28;20022;-73
2021/11/15 08:05:01;;;;;;;28.52;15.95;;;13.00;70.60;;;;;;5033952;28;20106;-73
2021/11/15 08:07:27;;;;;;;23.42;16.00;;;13.10;70.20;;;;;;5033739;28;20036;-73
2021/11/15 08:09:53;;;;;;;24.40;15.45;;;13.10;69.80;;;;;;5033517;28;20162;-74
2021/11/15 08:12:20;;;;;;;26.75;16.75;;;13.10;70.30;;;;;;5033473;28;20026;-74
2021/11/15 08:14:45;;;;;;;23.80;16.73;;;13.10;70.70;;;;;;5033615;28;20397;-74
2021/11/15 08:17:13;;;;;;;26.48;16.92;;;13.10;71.00;;;;;;5033593;28;20037;-73
2021/11/15 08:19:42;;;;;;;26.52;16.48;;;13.10;71.30;;;;;;5033381;28;20049;-73
2021/11/15 08:22:09;;;;;;;22.52;15.95;;;13.10;71.70;;;;;;5033514;28;20025;-72
2021/11/15 08:24:37;;;;;;;25.67;16.83;;;13.10;72.30;;;;;;5033480;28;20501;-73
2021/11/15 08:27:03;;;;;;;24.05;15.60;;;13.10;73.20;;;;;;5033404;28;20033;-73
2021/11/15 08:29:32;;;;;;;26.33;16.70;;;13.10;74.40;;;;;;5033699;28;20026;-74
2021/11/15 08:32:05;;;;;;;25.17;16.15;;;13.20;75.60;;;;;;5033477;28;20390;-73
2021/11/15 08:34:31;;;;;;;26.65;17.13;;;;;;;;;;5033777;28;20366;-73
2021/11/15 08:36:57;;;;;;;24.67;17.60;;;13.10;84.90;;;;;;5033455;28;20041;-72
2021/11/15 08:39:26;;;;;;;28.45;17.23;;;13.20;86.00;;;;;;5033275;28;20026;-72
2021/11/15 08:41:55;;;;;;;25.10;16.98;;;13.20;86.50;;;;;;5048736;28;20075;-74
2021/11/15 08:44:21;;;;;;;24.70;17.10;;;;;;;;;;5033278;28;20017;-73
2021/11/15 08:46:50;;;;;;;40.97;17.98;;;;;;;;;;5033309;28;20026;-73
2021/11/15 08:49:18;;;;;;;28.35;18.23;;;;;;;;;;5032690;28;20112;-74
2021/11/15 08:51:44;;;;;;;26.08;17.50;;;;;;;;;;5032799;28;20581;-75
2021/11/15 08:54:15;;;;;;;24.75;16.88;;;13.30;64.70;;;;;;5032940;28;20030;-74
2021/11/15 08:56:48;;;;;;;31.80;18.25;;;13.30;64.70;;;;;;5032837;28;20440;-74
2021/11/15 08:59:14;;;;;;;27.13;17.90;;;13.30;64.10;;;;;;5033121;28;20088;-73
2021/11/15 09:01:41;;;;;;;25.85;18.15;;;13.30;64.30;;;;;;5033081;28;20021;-73
2021/11/15 09:04:08;;;;;;;27.25;17.08;;;13.40;64.40;;;;;;5033200;28;20113;-74
2021/11/15 09:06:35;;;;;;;24.38;17.20;;;13.40;64.20;;;;;;5033267;28;20083;-75
2021/11/15 09:09:02;;;;;;;24.10;17.15;;;13.50;65.10;;;;;;5035746;28;20151;-74
2021/11/15 09:11:28;;;;;;;26.38;19.15;;;13.50;64.60;;;;;;5037006;28;20018;-74
2021/11/15 09:13:54;;;;;;;29.85;17.92;;;13.50;65.50;;;;;;5036155;28;20082;-74
2021/11/15 09:16:20;;;;;;;25.27;18.02;;;13.50;65.50;;;;;;5036680;28;20036;-74
2021/11/15 09:18:46;;;;;;;25.65;18.73;;;13.50;65.50;;;;;;5036040;28;20048;-74
2021/11/15 09:21:14;;;;;;;25.10;18.55;;;13.50;65.60;;;;;;5036499;28;20029;-73
2021/11/15 09:23:42;;;;;;;24.52;17.80;;;13.50;65.00;;;;;;5036954;28;20029;-73
2021/11/15 09:26:10;;;;;;;26.08;17.73;;;13.50;65.00;;;;;;5036816;28;20437;-74
2021/11/15 09:28:36;;;;;;;25.25;18.58;;;13.50;64.50;;;;;;5036511;28;20025;-74
2021/11/15 09:31:02;;;;;;;30.75;19.60;;;13.50;64.60;;;;;;5036571;28;20032;-73
2021/11/15 09:33:28;;;;;;;31.58;18.48;;;13.50;64.40;;;;;;5036290;28;20054;-74
2021/11/15 09:35:55;;;;;;;28.15;17.75;;;13.50;64.30;;;;;;5035060;28;20034;-74
2021/11/15 09:38:23;;;;;;;30.85;18.58;;;13.50;64.30;;;;;;5036497;28;20100;-74
2021/11/15 09:40:55;;;;;;;32.95;19.35;;;13.50;63.80;;;;;;5036630;28;20132;-74
2021/11/15 09:43:22;;;;;;;27.60;18.38;;;13.50;63.80;;;;;;5036453;28;20083;-74
2021/11/15 09:45:48;;;;;;;26.30;18.77;;;13.50;63.70;;;;;;5036411;28;20067;-74
2021/11/15 09:48:14;;;;;;;29.55;18.70;;;13.40;64.00;;;;;;5035769;28;20421;-73
2021/11/15 09:50:40;;;;;;;28.25;19.10;;;13.50;64.50;;;;;;5036304;28;20021;-74
2021/11/15 09:53:08;;;;;;;24.60;18.67;;;13.50;64.00;;;;;;5035061;28;20025;-74
2021/11/15 09:55:34;;;;;;;27.67;18.08;;;13.50;64.00;;;;;;5036243;28;20026;-74
2021/11/15 09:58:00;;;;;;;23.13;17.75;;;13.50;64.00;;;;;;5035746;28;20398;-73
2021/11/15 10:00:27;;;;;;;24.42;18.50;;;13.50;63.90;;;;;;5035946;28;20434;-73
2021/11/15 10:02:53;;;;;;;28.17;19.40;;;13.50;64.10;;;;;;5043129;28;20427;-74
2021/11/15 10:05:20;;;;;;;26.58;18.30;;;13.50;63.90;;;;;;5043152;28;20025;-73
2021/11/15 10:07:52;;;;;;;34.35;18.55;;;13.60;63.90;;;;;;5045023;28;20028;-74
2021/11/15 10:10:26;;;;;;;25.07;18.23;;;13.60;63.70;;;;;;5045553;28;20025;-73
2021/11/15 10:13:09;;;;;;;22.20;17.40;;;13.60;64.30;;;;;;5055941;28;20021;-73
2021/11/15 10:15:55;;;;;;;26.85;18.75;;;13.70;66.50;;;;;;5054442;28;20025;-72
2021/11/15 10:18:32;;;;;;;25.95;18.80;;;13.70;66.80;;;;;;5055265;28;20116;-73
2021/11/15 10:20:59;;;;;;;26.70;18.77;;;13.80;68.70;;;;;;5055536;28;20021;-74
2021/11/15 10:23:42;;;;;;;31.08;18.05;;;13.80;69.10;;;;;;5054485;28;20110;-72
2021/11/15 10:26:16;;;;;;;29.65;19.00;;;13.80;67.00;;;;;;5055778;28;20067;-72
2021/11/15 10:28:42;;;;;;;26.52;18.92;;;13.80;71.40;;;;;;5055223;28;20030;-73
2021/11/15 10:31:35;;;;;;;30.75;18.45;;;13.80;70.80;;;;;;5054167;28;20497;-72
2021/11/15 10:34:03;;;;;;;27.02;18.48;;;13.80;68.70;;;;;;5055475;28;20481;-73
2021/11/15 10:36:49;;;;;;;23.73;17.65;;;13.80;67.60;;;;;;5055155;28;20029;-73
2021/11/15 10:39:16;;;;;;;24.17;17.85;;;13.80;65.90;;;;;;5055118;28;20060;-73
2021/11/15 10:41:42;;;;;;;24.77;18.38;;;13.80;65.70;;;;;;5053741;28;20397;-72
2021/11/15 10:44:12;;;;;;;24.52;17.25;;;13.80;66.40;;;;;;5055538;28;20021;-72
2021/11/15 10:46:39;;;;;;;26.00;18.35;;;13.80;66.00;;;;;;5055249;28;20068;-72
2021/11/15 10:49:07;;;;;;;24.42;16.80;;;13.80;66.50;;;;;;5053840;28;20020;-73
2021/11/15 10:52:02;;;;;;;24.95;17.55;;;13.90;67.00;;;;;;5055088;28;20055;-73
2021/11/15 10:54:40;;;;;;;25.63;18.60;;;13.90;68.80;;;;;;5051153;28;20033;-73
2021/11/15 10:57:39;;;;;;;24.60;17.63;;;13.90;71.70;;;;;;5055024;28;20037;-72
2021/11/15 11:00:04;;;;;;;31.48;18.98;;;13.90;71.30;;;;;;5039279;28;20064;-74
2021/11/15 11:02:31;;;;;;;24.08;17.77;;;13.90;71.60;;;;;;5054747;28;20426;-76
2021/11/15 11:05:18;;;;;;;23.70;17.77;;;13.90;72.10;;;;;;5051730;28;20390;-73
2021/11/15 11:07:47;;;;;;;23.50;17.40;;;13.90;72.90;;;;;;5051660;28;20041;-72
2021/11/15 11:10:21;;;;;;;25.05;18.67;;;13.90;73.60;;;;;;5052941;28;20099;-73
2021/11/15 11:13:04;;;;;;;25.27;18.05;;;13.80;75.10;;;;;;5054240;28;20033;-74
2021/11/15 11:15:35;;;;;;;25.70;17.70;;;13.90;74.60;;;;;;5054423;28;20073;-72
2021/11/15 11:18:14;;;;;;;23.92;18.08;;;13.80;73.70;;;;;;5053607;28;20043;-73
2021/11/15 11:26:10;;;;;;;29.42;17.40;;;13.80;73.00;;;;;;5051705;28;20073;-75
2021/11/15 11:28:38;;;;;;;27.90;17.80;;;13.80;74.40;;;;;;5052003;28;20025;-75
2021/11/15 11:31:06;;;;;;;23.58;17.75;;;13.80;74.20;;;;;;5053684;28;20481;-76
2021/11/15 11:33:33;;;;;;;25.10;18.48;;;13.80;74.50;;;;;;5054636;28;20087;-75
2021/11/15 11:36:01;;;;;;;23.52;17.80;;;13.80;74.40;;;;;;5052952;28;20031;-75
2021/11/15 11:38:28;;;;;;;27.38;18.80;;;13.80;74.40;;;;;;5054157;28;20048;-77
2021/11/15 11:40:54;;;;;;;25.20;17.92;;;13.90;75.30;;;;;;5054070;28;20059;-75
2021/11/15 11:43:21;;;;;;;28.55;17.77;;;13.90;74.20;;;;;;5054267;28;20060;-75
2021/11/15 11:45:47;;;;;;;26.15;17.65;;;13.90;74.70;;;;;;5054117;28;20079;-75
2021/11/15 11:48:15;;;;;;;22.75;17.67;;;14.00;77.80;;;;;;5053709;28;20549;-75
2021/11/15 11:50:46;;;;;;;22.83;18.10;;;13.90;68.00;;;;;;5054110;28;20091;-75
2021/11/15 11:53:13;;;;;;;26.20;18.65;;;14.00;66.20;;;;;;5053848;28;20033;-76
2021/11/15 11:55:45;;;;;;;22.38;17.95;;;14.00;65.30;;;;;;5053956;28;20017;-75
2021/11/15 11:58:24;;;;;;;24.75;17.42;;;13.90;61.00;;;;;;5053812;28;20041;-76
2021/11/15 12:00:53;;;;;;;26.17;18.25;;;14.00;60.50;;;;;;5053441;28;20379;-74
2021/11/15 12:03:19;;;;;;;22.08;16.55;;;14.00;60.60;;;;;;5053860;28;20021;-75
2021/11/15 12:05:45;;;;;;;22.80;16.77;;;;;;;;;;5053730;28;20036;-75
2021/11/15 12:08:10;;;;;;;23.33;14.70;;;14.00;60.80;;;;;;5053588;28;20477;-75
2021/11/15 12:10:57;;;;;;;22.02;15.27;;;14.00;60.70;;;;;;5053708;28;20059;-74
2021/11/15 12:13:24;;;;;;;24.80;15.20;;;14.00;60.40;;;;;;5053827;28;20025;-74
2021/11/15 12:15:51;;;;;;;18.42;14.07;;;14.00;60.90;;;;;;5053534;28;20508;-75
2021/11/15 12:18:24;;;;;;;22.80;14.63;;;14.10;60.40;;;;;;5053177;28;20095;-74
2021/11/15 12:20:59;;;;;;;17.88;14.40;;;14.00;60.30;;;;;;5052604;28;20025;-74
2021/11/15 12:23:26;;;;;;;22.90;13.65;;;14.10;59.80;;;;;;5053782;28;20392;-75
2021/11/15 12:26:06;;;;;;;23.25;13.80;;;14.10;60.10;;;;;;5053382;28;20385;-74
2021/11/15 12:28:33;;;;;;;19.25;13.98;;;14.10;60.60;;;;;;5053255;28;20025;-75
2021/11/15 12:30:59;;;;;;;19.10;13.88;;;14.10;60.10;;;;;;5053033;28;20104;-76
2021/11/15 12:33:29;;;;;;;21.00;13.48;;;14.10;60.10;;;;;;5053431;28;20112;-75
2021/11/15 12:35:55;;;;;;;18.73;13.32;;;14.10;60.00;;;;;;5052834;28;20025;-75
2021/11/15 12:38:45;;;;;;;25.65;13.52;;;14.10;59.80;;;;;;5052275;28;20098;-75
2021/11/15 12:41:21;;;;;;;19.85;13.80;;;14.20;59.30;;;;;;5040931;28;20037;-74